sensor_id;sensor_type;location;lat;lon;timestamp;P1;durP1;ratioP1;P2;durP2;ratioP2
37641;SDS011;23486;51.956;5.888;2022-09-27T00:01:21;5.85;;;0.88;;
37641;SDS011;23486;51.956;5.888;2022-09-27T00:03:47;4.90;;;0.55;;
37641;SDS011;23486;51.956;5.888;2022-09-27T00:06:19;10.05;;;0.77;;
37641;SDS011;23486;51.956;5.888;2022-09-27T00:08:50;6.93;;;0.50;;
37641;SDS011;23486;51.956;5.888;2022-09-27T00:11:19;7.72;;;0.80;;
37641;SDS011;23486;51.956;5.888;2022-09-27T00:13:55;6.32;;;0.50;;
37641;SDS011;23486;51.956;5.888;2022-09-27T00:16:26;9.52;;;0.90;;
37641;SDS011;23486;51.956;5.888;2022-09-27T00:18:57;10.75;;;0.50;;
37641;SDS011;23486;51.956;5.888;2022-09-27T00:21:28;8.90;;;1.20;;
37641;SDS011;23486;51.956;5.888;2022-09-27T00:23:54;5.30;;;0.70;;
37641;SDS011;23486;51.956;5.888;2022-09-27T00:26:21;6.93;;;0.68;;
37641;SDS011;23486;51.956;5.888;2022-09-27T00:28:47;2.90;;;0.50;;
37641;SDS011;23486;51.956;5.888;2022-09-27T00:31:19;3.95;;;0.70;;
37641;SDS011;23486;51.956;5.888;2022-09-27T00:33:49;5.35;;;0.50;;
37641;SDS011;23486;51.956;5.888;2022-09-27T00:36:16;4.50;;;0.43;;
37641;SDS011;23486;51.956;5.888;2022-09-27T00:38:43;4.45;;;0.40;;
37641;SDS011;23486;51.956;5.888;2022-09-27T00:41:19;6.63;;;0.65;;
37641;SDS011;23486;51.956;5.888;2022-09-27T00:43:52;4.70;;;0.43;;
37641;SDS011;23486;51.956;5.888;2022-09-27T00:46:27;5.57;;;0.50;;
37641;SDS011;23486;51.956;5.888;2022-09-27T00:49:18;3.45;;;0.40;;
37641;SDS011;23486;51.956;5.888;2022-09-27T00:51:50;6.70;;;0.40;;
37641;SDS011;23486;51.956;5.888;2022-09-27T00:54:19;2.03;;;0.30;;
37641;SDS011;23486;51.956;5.888;2022-09-27T00:56:48;4.25;;;0.30;;
37641;SDS011;23486;51.956;5.888;2022-09-27T00:59:18;6.07;;;0.30;;
37641;SDS011;23486;51.956;5.888;2022-09-27T01:01:49;3.92;;;0.30;;
37641;SDS011;23486;51.956;5.888;2022-09-27T01:04:16;4.53;;;0.80;;
37641;SDS011;23486;51.956;5.888;2022-09-27T01:06:46;2.95;;;0.35;;
37641;SDS011;23486;51.956;5.888;2022-09-27T01:09:12;2.95;;;0.28;;
37641;SDS011;23486;51.956;5.888;2022-09-27T01:11:43;7.28;;;0.55;;
37641;SDS011;23486;51.956;5.888;2022-09-27T01:14:21;6.22;;;0.30;;
37641;SDS011;23486;51.956;5.888;2022-09-27T01:28:30;2.42;;;0.30;;
37641;SDS011;23486;51.956;5.888;2022-09-27T01:31:01;6.03;;;0.30;;
37641;SDS011;23486;51.956;5.888;2022-09-27T01:44:26;3.80;;;0.30;;
37641;SDS011;23486;51.956;5.888;2022-09-27T01:48:03;2.00;;;0.30;;
37641;SDS011;23486;51.956;5.888;2022-09-27T01:50:10;3.20;;;0.30;;
37641;SDS011;23486;51.956;5.888;2022-09-27T01:52:43;1.27;;;0.20;;
37641;SDS011;23486;51.956;5.888;2022-09-27T01:55:35;3.55;;;0.20;;
37641;SDS011;23486;51.956;5.888;2022-09-27T01:58:05;3.95;;;0.30;;
37641;SDS011;23486;51.956;5.888;2022-09-27T02:00:41;6.47;;;0.30;;
37641;SDS011;23486;51.956;5.888;2022-09-27T02:03:12;2.70;;;0.30;;
37641;SDS011;23486;51.956;5.888;2022-09-27T02:05:42;3.00;;;0.20;;
37641;SDS011;23486;51.956;5.888;2022-09-27T02:08:21;2.17;;;0.40;;
37641;SDS011;23486;51.956;5.888;2022-09-27T02:10:50;3.95;;;0.20;;
37641;SDS011;23486;51.956;5.888;2022-09-27T02:13:20;2.47;;;0.30;;
37641;SDS011;23486;51.956;5.888;2022-09-27T02:18:36;3.10;;;0.22;;
37641;SDS011;23486;51.956;5.888;2022-09-27T02:21:16;3.45;;;0.30;;
37641;SDS011;23486;51.956;5.888;2022-09-27T02:23:53;4.30;;;0.57;;
37641;SDS011;23486;51.956;5.888;2022-09-27T02:26:28;1.30;;;0.20;;
37641;SDS011;23486;51.956;5.888;2022-09-27T02:29:06;2.20;;;0.30;;
37641;SDS011;23486;51.956;5.888;2022-09-27T02:31:39;2.38;;;0.30;;
37641;SDS011;23486;51.956;5.888;2022-09-27T02:34:15;5.13;;;0.47;;
37641;SDS011;23486;51.956;5.888;2022-09-27T02:36:45;2.38;;;0.30;;
37641;SDS011;23486;51.956;5.888;2022-09-27T02:39:12;2.55;;;0.20;;
37641;SDS011;23486;51.956;5.888;2022-09-27T02:41:40;2.10;;;0.30;;
37641;SDS011;23486;51.956;5.888;2022-09-27T02:44:07;3.58;;;0.20;;
37641;SDS011;23486;51.956;5.888;2022-09-27T02:46:52;3.03;;;0.20;;
37641;SDS011;23486;51.956;5.888;2022-09-27T02:49:40;6.88;;;0.30;;
37641;SDS011;23486;51.956;5.888;2022-09-27T02:55:02;2.00;;;0.20;;
37641;SDS011;23486;51.956;5.888;2022-09-27T03:00:23;3.17;;;0.30;;
37641;SDS011;23486;51.956;5.888;2022-09-27T03:03:05;2.15;;;0.30;;
37641;SDS011;23486;51.956;5.888;2022-09-27T03:06:00;3.08;;;0.20;;
37641;SDS011;23486;51.956;5.888;2022-09-27T03:08:35;5.37;;;0.30;;
37641;SDS011;23486;51.956;5.888;2022-09-27T03:11:02;5.57;;;0.50;;
37641;SDS011;23486;51.956;5.888;2022-09-27T03:13:28;3.05;;;0.28;;
37641;SDS011;23486;51.956;5.888;2022-09-27T03:15:53;4.40;;;0.30;;
37641;SDS011;23486;51.956;5.888;2022-09-27T03:18:19;3.67;;;0.30;;
37641;SDS011;23486;51.956;5.888;2022-09-27T03:20:45;3.60;;;0.30;;
37641;SDS011;23486;51.956;5.888;2022-09-27T03:23:10;4.07;;;0.30;;
37641;SDS011;23486;51.956;5.888;2022-09-27T03:25:36;5.93;;;0.32;;
37641;SDS011;23486;51.956;5.888;2022-09-27T03:28:02;3.75;;;0.20;;
37641;SDS011;23486;51.956;5.888;2022-09-27T03:30:28;4.53;;;0.30;;
37641;SDS011;23486;51.956;5.888;2022-09-27T03:32:53;6.55;;;0.63;;
37641;SDS011;23486;51.956;5.888;2022-09-27T03:35:19;2.90;;;0.30;;
37641;SDS011;23486;51.956;5.888;2022-09-27T03:37:45;2.08;;;0.30;;
37641;SDS011;23486;51.956;5.888;2022-09-27T03:40:11;2.67;;;0.30;;
37641;SDS011;23486;51.956;5.888;2022-09-27T03:42:37;1.30;;;0.20;;
37641;SDS011;23486;51.956;5.888;2022-09-27T03:45:03;6.63;;;0.43;;
37641;SDS011;23486;51.956;5.888;2022-09-27T03:47:29;9.18;;;0.40;;
37641;SDS011;23486;51.956;5.888;2022-09-27T03:49:54;6.00;;;0.30;;
37641;SDS011;23486;51.956;5.888;2022-09-27T03:52:20;3.50;;;0.20;;
37641;SDS011;23486;51.956;5.888;2022-09-27T03:54:45;4.85;;;0.40;;
37641;SDS011;23486;51.956;5.888;2022-09-27T03:57:12;4.20;;;0.30;;
37641;SDS011;23486;51.956;5.888;2022-09-27T03:59:41;5.85;;;0.43;;
37641;SDS011;23486;51.956;5.888;2022-09-27T04:02:07;5.25;;;0.35;;
37641;SDS011;23486;51.956;5.888;2022-09-27T04:04:32;4.75;;;0.30;;
37641;SDS011;23486;51.956;5.888;2022-09-27T04:06:58;5.38;;;0.40;;
37641;SDS011;23486;51.956;5.888;2022-09-27T04:09:23;5.78;;;0.38;;
37641;SDS011;23486;51.956;5.888;2022-09-27T04:11:49;7.00;;;0.60;;
37641;SDS011;23486;51.956;5.888;2022-09-27T04:14:15;6.53;;;0.65;;
37641;SDS011;23486;51.956;5.888;2022-09-27T04:16:40;8.30;;;0.55;;
37641;SDS011;23486;51.956;5.888;2022-09-27T04:19:06;6.57;;;0.55;;
37641;SDS011;23486;51.956;5.888;2022-09-27T04:21:33;6.78;;;0.50;;
37641;SDS011;23486;51.956;5.888;2022-09-27T04:23:59;5.60;;;0.50;;
37641;SDS011;23486;51.956;5.888;2022-09-27T04:26:25;6.32;;;0.50;;
37641;SDS011;23486;51.956;5.888;2022-09-27T04:28:51;3.90;;;0.40;;
37641;SDS011;23486;51.956;5.888;2022-09-27T04:31:17;6.03;;;0.40;;
37641;SDS011;23486;51.956;5.888;2022-09-27T04:33:43;7.95;;;0.60;;
37641;SDS011;23486;51.956;5.888;2022-09-27T04:36:18;3.70;;;0.45;;
37641;SDS011;23486;51.956;5.888;2022-09-27T04:38:55;5.80;;;0.57;;
37641;SDS011;23486;51.956;5.888;2022-09-27T04:41:22;5.97;;;0.73;;
37641;SDS011;23486;51.956;5.888;2022-09-27T04:43:50;4.38;;;0.40;;
37641;SDS011;23486;51.956;5.888;2022-09-27T04:46:16;6.93;;;0.80;;
37641;SDS011;23486;51.956;5.888;2022-09-27T04:48:42;7.25;;;0.60;;
37641;SDS011;23486;51.956;5.888;2022-09-27T04:51:08;8.25;;;0.75;;
37641;SDS011;23486;51.956;5.888;2022-09-27T04:53:34;4.05;;;0.40;;
37641;SDS011;23486;51.956;5.888;2022-09-27T04:56:03;5.50;;;0.47;;
37641;SDS011;23486;51.956;5.888;2022-09-27T04:58:30;6.55;;;0.40;;
37641;SDS011;23486;51.956;5.888;2022-09-27T05:00:58;6.90;;;0.60;;
37641;SDS011;23486;51.956;5.888;2022-09-27T05:03:24;12.32;;;0.75;;
37641;SDS011;23486;51.956;5.888;2022-09-27T05:05:52;6.03;;;0.45;;
37641;SDS011;23486;51.956;5.888;2022-09-27T05:08:18;3.50;;;0.30;;
37641;SDS011;23486;51.956;5.888;2022-09-27T05:10:45;7.03;;;0.80;;
37641;SDS011;23486;51.956;5.888;2022-09-27T05:13:11;9.55;;;1.27;;
37641;SDS011;23486;51.956;5.888;2022-09-27T05:15:37;8.23;;;0.55;;
37641;SDS011;23486;51.956;5.888;2022-09-27T05:18:03;4.45;;;0.35;;
37641;SDS011;23486;51.956;5.888;2022-09-27T05:20:32;5.10;;;0.40;;
37641;SDS011;23486;51.956;5.888;2022-09-27T05:22:58;5.00;;;0.40;;
37641;SDS011;23486;51.956;5.888;2022-09-27T05:25:24;4.65;;;0.50;;
37641;SDS011;23486;51.956;5.888;2022-09-27T05:27:50;4.30;;;0.50;;
37641;SDS011;23486;51.956;5.888;2022-09-27T05:30:16;6.70;;;0.60;;
37641;SDS011;23486;51.956;5.888;2022-09-27T05:32:42;5.95;;;0.35;;
37641;SDS011;23486;51.956;5.888;2022-09-27T05:35:08;5.20;;;0.30;;
37641;SDS011;23486;51.956;5.888;2022-09-27T05:37:34;2.33;;;0.30;;
37641;SDS011;23486;51.956;5.888;2022-09-27T05:40:00;5.53;;;0.40;;
37641;SDS011;23486;51.956;5.888;2022-09-27T05:42:28;7.50;;;0.47;;
37641;SDS011;23486;51.956;5.888;2022-09-27T05:44:54;5.85;;;0.60;;
37641;SDS011;23486;51.956;5.888;2022-09-27T05:47:20;3.22;;;0.40;;
37641;SDS011;23486;51.956;5.888;2022-09-27T05:49:45;3.30;;;0.38;;
37641;SDS011;23486;51.956;5.888;2022-09-27T05:52:11;6.55;;;0.50;;
37641;SDS011;23486;51.956;5.888;2022-09-27T05:54:36;4.65;;;0.30;;
37641;SDS011;23486;51.956;5.888;2022-09-27T05:57:02;4.40;;;0.40;;
37641;SDS011;23486;51.956;5.888;2022-09-27T05:59:27;2.13;;;0.43;;
37641;SDS011;23486;51.956;5.888;2022-09-27T06:01:53;3.40;;;0.40;;
37641;SDS011;23486;51.956;5.888;2022-09-27T06:04:19;6.03;;;0.38;;
37641;SDS011;23486;51.956;5.888;2022-09-27T06:06:45;5.10;;;0.40;;
37641;SDS011;23486;51.956;5.888;2022-09-27T06:09:12;6.95;;;0.40;;
37641;SDS011;23486;51.956;5.888;2022-09-27T06:11:42;6.43;;;0.50;;
37641;SDS011;23486;51.956;5.888;2022-09-27T06:14:11;2.05;;;0.40;;
37641;SDS011;23486;51.956;5.888;2022-09-27T06:16:37;2.90;;;0.38;;
37641;SDS011;23486;51.956;5.888;2022-09-27T06:19:03;2.22;;;0.30;;
37641;SDS011;23486;51.956;5.888;2022-09-27T06:21:29;4.03;;;0.90;;
37641;SDS011;23486;51.956;5.888;2022-09-27T06:23:56;4.70;;;0.40;;
37641;SDS011;23486;51.956;5.888;2022-09-27T06:26:24;3.85;;;0.40;;
37641;SDS011;23486;51.956;5.888;2022-09-27T06:28:53;5.53;;;0.40;;
37641;SDS011;23486;51.956;5.888;2022-09-27T06:31:19;2.50;;;0.32;;
37641;SDS011;23486;51.956;5.888;2022-09-27T06:33:45;1.65;;;0.30;;
37641;SDS011;23486;51.956;5.888;2022-09-27T06:36:11;2.13;;;0.40;;
37641;SDS011;23486;51.956;5.888;2022-09-27T06:38:37;9.35;;;0.55;;
37641;SDS011;23486;51.956;5.888;2022-09-27T06:41:03;3.88;;;0.63;;
37641;SDS011;23486;51.956;5.888;2022-09-27T06:43:30;2.05;;;0.35;;
37641;SDS011;23486;51.956;5.888;2022-09-27T06:46:01;3.50;;;0.30;;
37641;SDS011;23486;51.956;5.888;2022-09-27T06:48:29;2.17;;;0.40;;
37641;SDS011;23486;51.956;5.888;2022-09-27T06:50:55;2.97;;;0.40;;
37641;SDS011;23486;51.956;5.888;2022-09-27T06:53:22;2.28;;;0.40;;
37641;SDS011;23486;51.956;5.888;2022-09-27T06:55:48;1.92;;;0.40;;
37641;SDS011;23486;51.956;5.888;2022-09-27T06:58:15;7.35;;;0.40;;
37641;SDS011;23486;51.956;5.888;2022-09-27T07:00:59;4.57;;;0.47;;
37641;SDS011;23486;51.956;5.888;2022-09-27T07:03:25;3.97;;;0.50;;
37641;SDS011;23486;51.956;5.888;2022-09-27T07:05:59;1.73;;;0.43;;
37641;SDS011;23486;51.956;5.888;2022-09-27T07:08:26;1.92;;;0.40;;
37641;SDS011;23486;51.956;5.888;2022-09-27T07:10:53;3.90;;;0.47;;
37641;SDS011;23486;51.956;5.888;2022-09-27T07:13:20;2.90;;;0.45;;
37641;SDS011;23486;51.956;5.888;2022-09-27T07:15:46;5.18;;;0.40;;
37641;SDS011;23486;51.956;5.888;2022-09-27T07:18:12;4.13;;;0.80;;
37641;SDS011;23486;51.956;5.888;2022-09-27T07:20:37;4.40;;;0.55;;
37641;SDS011;23486;51.956;5.888;2022-09-27T07:23:04;2.28;;;0.38;;
37641;SDS011;23486;51.956;5.888;2022-09-27T07:25:31;2.90;;;0.50;;
37641;SDS011;23486;51.956;5.888;2022-09-27T07:28:01;3.35;;;0.50;;
37641;SDS011;23486;51.956;5.888;2022-09-27T07:30:27;5.32;;;0.82;;
37641;SDS011;23486;51.956;5.888;2022-09-27T07:32:57;3.08;;;0.68;;
37641;SDS011;23486;51.956;5.888;2022-09-27T07:35:26;3.08;;;0.60;;
37641;SDS011;23486;51.956;5.888;2022-09-27T07:37:52;3.67;;;0.82;;
37641;SDS011;23486;51.956;5.888;2022-09-27T07:40:19;1.88;;;0.70;;
37641;SDS011;23486;51.956;5.888;2022-09-27T07:42:44;2.60;;;1.08;;
37641;SDS011;23486;51.956;5.888;2022-09-27T07:45:10;2.67;;;0.60;;
37641;SDS011;23486;51.956;5.888;2022-09-27T07:47:45;3.47;;;0.63;;
37641;SDS011;23486;51.956;5.888;2022-09-27T07:50:12;8.80;;;0.60;;
37641;SDS011;23486;51.956;5.888;2022-09-27T07:52:41;2.47;;;0.70;;
37641;SDS011;23486;51.956;5.888;2022-09-27T07:55:09;7.57;;;0.70;;
37641;SDS011;23486;51.956;5.888;2022-09-27T07:57:36;5.75;;;0.50;;
37641;SDS011;23486;51.956;5.888;2022-09-27T08:00:05;3.38;;;0.40;;
37641;SDS011;23486;51.956;5.888;2022-09-27T08:02:32;2.20;;;0.30;;
37641;SDS011;23486;51.956;5.888;2022-09-27T08:04:58;6.30;;;0.35;;
37641;SDS011;23486;51.956;5.888;2022-09-27T08:07:24;3.95;;;0.50;;
37641;SDS011;23486;51.956;5.888;2022-09-27T08:09:51;4.25;;;0.22;;
37641;SDS011;23486;51.956;5.888;2022-09-27T08:12:16;3.03;;;0.30;;
37641;SDS011;23486;51.956;5.888;2022-09-27T08:14:42;2.20;;;0.20;;
37641;SDS011;23486;51.956;5.888;2022-09-27T08:17:11;3.50;;;0.40;;
37641;SDS011;23486;51.956;5.888;2022-09-27T08:19:36;3.88;;;0.40;;
37641;SDS011;23486;51.956;5.888;2022-09-27T08:22:02;6.00;;;1.00;;
37641;SDS011;23486;51.956;5.888;2022-09-27T08:24:27;5.00;;;0.60;;
37641;SDS011;23486;51.956;5.888;2022-09-27T08:26:53;3.22;;;0.70;;
37641;SDS011;23486;51.956;5.888;2022-09-27T08:29:19;2.78;;;0.90;;
37641;SDS011;23486;51.956;5.888;2022-09-27T08:31:46;4.18;;;0.90;;
37641;SDS011;23486;51.956;5.888;2022-09-27T08:34:17;4.57;;;1.23;;
37641;SDS011;23486;51.956;5.888;2022-09-27T08:36:42;2.30;;;0.63;;
37641;SDS011;23486;51.956;5.888;2022-09-27T08:39:08;7.22;;;0.90;;
37641;SDS011;23486;51.956;5.888;2022-09-27T08:52:26;4.55;;;1.42;;
37641;SDS011;23486;51.956;5.888;2022-09-27T08:55:09;2.97;;;1.20;;
37641;SDS011;23486;51.956;5.888;2022-09-27T08:58:03;4.18;;;2.13;;
37641;SDS011;23486;51.956;5.888;2022-09-27T09:00:51;7.45;;;2.25;;
37641;SDS011;23486;51.956;5.888;2022-09-27T09:03:21;4.40;;;2.63;;
37641;SDS011;23486;51.956;5.888;2022-09-27T09:05:52;4.10;;;1.85;;
37641;SDS011;23486;51.956;5.888;2022-09-27T09:11:41;4.07;;;2.28;;
37641;SDS011;23486;51.956;5.888;2022-09-27T09:25:49;1.52;;;0.50;;
37641;SDS011;23486;51.956;5.888;2022-09-27T09:34:00;6.05;;;1.70;;
37641;SDS011;23486;51.956;5.888;2022-09-27T09:36:41;3.83;;;1.98;;
37641;SDS011;23486;51.956;5.888;2022-09-27T09:39:20;3.35;;;2.08;;
37641;SDS011;23486;51.956;5.888;2022-09-27T09:42:05;4.25;;;2.15;;
37641;SDS011;23486;51.956;5.888;2022-09-27T09:44:34;4.22;;;1.90;;
37641;SDS011;23486;51.956;5.888;2022-09-27T09:47:14;4.78;;;2.63;;
37641;SDS011;23486;51.956;5.888;2022-09-27T09:49:50;4.43;;;2.30;;
37641;SDS011;23486;51.956;5.888;2022-09-27T09:52:22;9.10;;;1.95;;
37641;SDS011;23486;51.956;5.888;2022-09-27T09:54:55;6.53;;;1.50;;
37641;SDS011;23486;51.956;5.888;2022-09-27T09:57:30;2.65;;;1.25;;
37641;SDS011;23486;51.956;5.888;2022-09-27T10:00:25;3.75;;;0.60;;
37641;SDS011;23486;51.956;5.888;2022-09-27T10:02:52;2.90;;;0.52;;
37641;SDS011;23486;51.956;5.888;2022-09-27T10:05:20;6.30;;;0.90;;
37641;SDS011;23486;51.956;5.888;2022-09-27T10:07:48;4.53;;;0.50;;
37641;SDS011;23486;51.956;5.888;2022-09-27T10:10:16;2.38;;;0.43;;
37641;SDS011;23486;51.956;5.888;2022-09-27T10:12:44;3.67;;;0.60;;
37641;SDS011;23486;51.956;5.888;2022-09-27T10:15:13;3.75;;;0.82;;
37641;SDS011;23486;51.956;5.888;2022-09-27T10:17:58;2.97;;;0.30;;
37641;SDS011;23486;51.956;5.888;2022-09-27T10:20:45;3.85;;;0.30;;
37641;SDS011;23486;51.956;5.888;2022-09-27T10:23:15;1.65;;;0.20;;
37641;SDS011;23486;51.956;5.888;2022-09-27T10:28:25;3.53;;;0.20;;
37641;SDS011;23486;51.956;5.888;2022-09-27T10:31:02;2.58;;;0.20;;
37641;SDS011;23486;51.956;5.888;2022-09-27T10:33:34;5.55;;;0.30;;
37641;SDS011;23486;51.956;5.888;2022-09-27T10:36:03;4.10;;;0.70;;
37641;SDS011;23486;51.956;5.888;2022-09-27T10:38:50;3.33;;;0.20;;
37641;SDS011;23486;51.956;5.888;2022-09-27T10:43:56;3.85;;;0.30;;
37641;SDS011;23486;51.956;5.888;2022-09-27T10:46:46;4.05;;;0.50;;
37641;SDS011;23486;51.956;5.888;2022-09-27T10:51:52;0.82;;;0.10;;
37641;SDS011;23486;51.956;5.888;2022-09-27T10:54:27;1.80;;;0.20;;
37641;SDS011;23486;51.956;5.888;2022-09-27T10:57:01;3.60;;;0.17;;
37641;SDS011;23486;51.956;5.888;2022-09-27T10:59:40;1.80;;;0.10;;
37641;SDS011;23486;51.956;5.888;2022-09-27T11:02:19;1.65;;;0.20;;
37641;SDS011;23486;51.956;5.888;2022-09-27T11:05:14;2.60;;;0.10;;
37641;SDS011;23486;51.956;5.888;2022-09-27T11:07:56;1.50;;;0.10;;
37641;SDS011;23486;51.956;5.888;2022-09-27T11:10:24;1.40;;;0.20;;
37641;SDS011;23486;51.956;5.888;2022-09-27T11:13:10;3.58;;;0.20;;
37641;SDS011;23486;51.956;5.888;2022-09-27T11:15:55;1.92;;;0.20;;
37641;SDS011;23486;51.956;5.888;2022-09-27T11:21:07;1.08;;;0.20;;
37641;SDS011;23486;51.956;5.888;2022-09-27T11:23:58;2.97;;;0.10;;
37641;SDS011;23486;51.956;5.888;2022-09-27T11:29:34;1.95;;;0.10;;
37641;SDS011;23486;51.956;5.888;2022-09-27T11:32:17;3.17;;;0.20;;
37641;SDS011;23486;51.956;5.888;2022-09-27T11:35:04;2.67;;;0.10;;
37641;SDS011;23486;51.956;5.888;2022-09-27T11:40:38;1.30;;;0.10;;
37641;SDS011;23486;51.956;5.888;2022-09-27T11:43:23;1.58;;;0.20;;
37641;SDS011;23486;51.956;5.888;2022-09-27T11:48:44;6.35;;;0.20;;
37641;SDS011;23486;51.956;5.888;2022-09-27T11:54:02;1.00;;;0.10;;
37641;SDS011;23486;51.956;5.888;2022-09-27T11:56:49;1.55;;;0.20;;
37641;SDS011;23486;51.956;5.888;2022-09-27T11:59:48;0.50;;;0.10;;
37641;SDS011;23486;51.956;5.888;2022-09-27T12:05:14;1.00;;;0.20;;
37641;SDS011;23486;51.956;5.888;2022-09-27T12:10:51;0.85;;;0.10;;
37641;SDS011;23486;51.956;5.888;2022-09-27T12:13:28;1.80;;;0.20;;
37641;SDS011;23486;51.956;5.888;2022-09-27T12:15:59;2.30;;;0.20;;
37641;SDS011;23486;51.956;5.888;2022-09-27T12:18:29;2.70;;;0.50;;
37641;SDS011;23486;51.956;5.888;2022-09-27T12:21:02;2.03;;;0.20;;
37641;SDS011;23486;51.956;5.888;2022-09-27T12:23:35;1.73;;;0.25;;
37641;SDS011;23486;51.956;5.888;2022-09-27T12:26:39;1.60;;;0.10;;
37641;SDS011;23486;51.956;5.888;2022-09-27T12:29:26;2.55;;;0.10;;
37641;SDS011;23486;51.956;5.888;2022-09-27T12:38:11;1.25;;;0.10;;
37641;SDS011;23486;51.956;5.888;2022-09-27T12:40:45;2.60;;;0.10;;
37641;SDS011;23486;51.956;5.888;2022-09-27T12:43:24;0.60;;;0.10;;
37641;SDS011;23486;51.956;5.888;2022-09-27T12:48:41;0.80;;;0.10;;
37641;SDS011;23486;51.956;5.888;2022-09-27T12:51:09;1.38;;;0.20;;
37641;SDS011;23486;51.956;5.888;2022-09-27T12:53:47;0.80;;;0.10;;
37641;SDS011;23486;51.956;5.888;2022-09-27T13:10:29;0.90;;;0.10;;
37641;SDS011;23486;51.956;5.888;2022-09-27T13:13:08;0.40;;;0.10;;
37641;SDS011;23486;51.956;5.888;2022-09-27T13:15:37;1.05;;;0.10;;
37641;SDS011;23486;51.956;5.888;2022-09-27T13:18:05;1.33;;;0.10;;
37641;SDS011;23486;51.956;5.888;2022-09-27T13:20:51;0.35;;;0.03;;
37641;SDS011;23486;51.956;5.888;2022-09-27T13:25:46;1.25;;;0.10;;
37641;SDS011;23486;51.956;5.888;2022-09-27T13:31:05;0.80;;;0.10;;
37641;SDS011;23486;51.956;5.888;2022-09-27T13:33:39;0.95;;;0.10;;
37641;SDS011;23486;51.956;5.888;2022-09-27T13:36:16;0.40;;;0.20;;
37641;SDS011;23486;51.956;5.888;2022-09-27T13:38:51;2.15;;;0.17;;
37641;SDS011;23486;51.956;5.888;2022-09-27T13:41:27;2.45;;;0.20;;
37641;SDS011;23486;51.956;5.888;2022-09-27T13:46:34;2.90;;;0.20;;
37641;SDS011;23486;51.956;5.888;2022-09-27T13:49:04;0.77;;;0.10;;
37641;SDS011;23486;51.956;5.888;2022-09-27T13:51:42;2.67;;;0.20;;
37641;SDS011;23486;51.956;5.888;2022-09-27T13:57:00;2.17;;;0.17;;
37641;SDS011;23486;51.956;5.888;2022-09-27T14:02:18;0.82;;;0.20;;
37641;SDS011;23486;51.956;5.888;2022-09-27T14:04:49;2.67;;;0.20;;
37641;SDS011;23486;51.956;5.888;2022-09-27T14:07:16;1.33;;;0.20;;
37641;SDS011;23486;51.956;5.888;2022-09-27T14:09:47;1.42;;;0.20;;
37641;SDS011;23486;51.956;5.888;2022-09-27T14:12:17;0.73;;;0.20;;
37641;SDS011;23486;51.956;5.888;2022-09-27T14:14:51;3.05;;;0.22;;
37641;SDS011;23486;51.956;5.888;2022-09-27T14:17:19;0.90;;;0.20;;
37641;SDS011;23486;51.956;5.888;2022-09-27T14:19:46;2.42;;;0.22;;
37641;SDS011;23486;51.956;5.888;2022-09-27T14:22:14;1.27;;;0.20;;
37641;SDS011;23486;51.956;5.888;2022-09-27T14:27:18;1.35;;;0.20;;
37641;SDS011;23486;51.956;5.888;2022-09-27T14:29:50;1.65;;;0.20;;
37641;SDS011;23486;51.956;5.888;2022-09-27T14:32:18;0.43;;;0.10;;
37641;SDS011;23486;51.956;5.888;2022-09-27T14:38:16;2.92;;;0.20;;
37641;SDS011;23486;51.956;5.888;2022-09-27T14:40:54;3.47;;;0.40;;
37641;SDS011;23486;51.956;5.888;2022-09-27T14:43:23;2.03;;;0.20;;
37641;SDS011;23486;51.956;5.888;2022-09-27T14:45:50;1.27;;;0.20;;
37641;SDS011;23486;51.956;5.888;2022-09-27T14:48:28;1.63;;;0.20;;
37641;SDS011;23486;51.956;5.888;2022-09-27T14:53:43;1.38;;;0.10;;
37641;SDS011;23486;51.956;5.888;2022-09-27T14:56:13;1.63;;;0.10;;
37641;SDS011;23486;51.956;5.888;2022-09-27T14:58:42;0.80;;;0.17;;
37641;SDS011;23486;51.956;5.888;2022-09-27T15:01:20;1.67;;;0.10;;
37641;SDS011;23486;51.956;5.888;2022-09-27T15:03:47;0.88;;;0.20;;
37641;SDS011;23486;51.956;5.888;2022-09-27T15:06:16;1.98;;;0.20;;
37641;SDS011;23486;51.956;5.888;2022-09-27T15:08:42;1.67;;;0.20;;
37641;SDS011;23486;51.956;5.888;2022-09-27T15:11:11;1.63;;;0.20;;
37641;SDS011;23486;51.956;5.888;2022-09-27T15:13:37;1.35;;;0.30;;
37641;SDS011;23486;51.956;5.888;2022-09-27T15:16:09;0.95;;;0.10;;
37641;SDS011;23486;51.956;5.888;2022-09-27T15:18:42;1.20;;;0.20;;
37641;SDS011;23486;51.956;5.888;2022-09-27T15:21:11;2.25;;;0.20;;
37641;SDS011;23486;51.956;5.888;2022-09-27T15:23:40;0.95;;;0.20;;
37641;SDS011;23486;51.956;5.888;2022-09-27T15:26:15;0.50;;;0.10;;
37641;SDS011;23486;51.956;5.888;2022-09-27T15:28:49;1.48;;;0.20;;
37641;SDS011;23486;51.956;5.888;2022-09-27T15:31:31;1.00;;;0.20;;
37641;SDS011;23486;51.956;5.888;2022-09-27T15:33:59;0.88;;;0.22;;
37641;SDS011;23486;51.956;5.888;2022-09-27T15:39:18;1.05;;;0.20;;
37641;SDS011;23486;51.956;5.888;2022-09-27T15:42:00;1.90;;;0.22;;
37641;SDS011;23486;51.956;5.888;2022-09-27T15:44:38;1.55;;;0.30;;
37641;SDS011;23486;51.956;5.888;2022-09-27T15:49:55;1.98;;;0.60;;
37641;SDS011;23486;51.956;5.888;2022-09-27T15:52:46;1.48;;;0.13;;
37641;SDS011;23486;51.956;5.888;2022-09-27T15:55:17;1.65;;;0.30;;
37641;SDS011;23486;51.956;5.888;2022-09-27T15:57:47;1.88;;;0.30;;
37641;SDS011;23486;51.956;5.888;2022-09-27T16:00:16;2.22;;;0.30;;
37641;SDS011;23486;51.956;5.888;2022-09-27T16:02:43;0.70;;;0.30;;
37641;SDS011;23486;51.956;5.888;2022-09-27T16:05:09;1.75;;;0.30;;
37641;SDS011;23486;51.956;5.888;2022-09-27T16:07:35;1.25;;;0.30;;
37641;SDS011;23486;51.956;5.888;2022-09-27T16:10:00;1.67;;;0.40;;
37641;SDS011;23486;51.956;5.888;2022-09-27T16:12:26;2.15;;;0.40;;
37641;SDS011;23486;51.956;5.888;2022-09-27T16:14:54;1.50;;;0.40;;
37641;SDS011;23486;51.956;5.888;2022-09-27T16:17:20;1.77;;;0.40;;
37641;SDS011;23486;51.956;5.888;2022-09-27T16:19:46;1.40;;;0.40;;
37641;SDS011;23486;51.956;5.888;2022-09-27T16:22:12;1.65;;;0.45;;
37641;SDS011;23486;51.956;5.888;2022-09-27T16:24:38;3.50;;;0.70;;
37641;SDS011;23486;51.956;5.888;2022-09-27T16:27:03;1.85;;;0.70;;
37641;SDS011;23486;51.956;5.888;2022-09-27T16:29:29;2.65;;;0.70;;
37641;SDS011;23486;51.956;5.888;2022-09-27T16:31:54;2.70;;;0.68;;
37641;SDS011;23486;51.956;5.888;2022-09-27T16:34:21;3.22;;;0.90;;
37641;SDS011;23486;51.956;5.888;2022-09-27T16:36:48;2.08;;;0.60;;
37641;SDS011;23486;51.956;5.888;2022-09-27T16:39:14;3.17;;;0.73;;
37641;SDS011;23486;51.956;5.888;2022-09-27T16:41:40;3.65;;;0.90;;
37641;SDS011;23486;51.956;5.888;2022-09-27T16:44:07;3.03;;;1.00;;
37641;SDS011;23486;51.956;5.888;2022-09-27T16:46:34;3.40;;;0.70;;
37641;SDS011;23486;51.956;5.888;2022-09-27T16:49:00;2.53;;;0.85;;
37641;SDS011;23486;51.956;5.888;2022-09-27T16:51:26;1.80;;;0.50;;
37641;SDS011;23486;51.956;5.888;2022-09-27T16:54:10;1.77;;;0.40;;
37641;SDS011;23486;51.956;5.888;2022-09-27T16:56:39;2.60;;;0.40;;
37641;SDS011;23486;51.956;5.888;2022-09-27T16:59:06;2.42;;;0.30;;
37641;SDS011;23486;51.956;5.888;2022-09-27T17:01:32;1.60;;;0.60;;
37641;SDS011;23486;51.956;5.888;2022-09-27T17:03:57;5.75;;;0.40;;
37641;SDS011;23486;51.956;5.888;2022-09-27T17:06:24;3.28;;;0.32;;
37641;SDS011;23486;51.956;5.888;2022-09-27T17:08:50;2.47;;;0.80;;
37641;SDS011;23486;51.956;5.888;2022-09-27T17:11:16;1.98;;;0.30;;
37641;SDS011;23486;51.956;5.888;2022-09-27T17:13:43;3.38;;;0.47;;
37641;SDS011;23486;51.956;5.888;2022-09-27T17:16:10;1.25;;;0.30;;
37641;SDS011;23486;51.956;5.888;2022-09-27T17:18:37;2.67;;;0.40;;
37641;SDS011;23486;51.956;5.888;2022-09-27T17:21:04;1.67;;;0.30;;
37641;SDS011;23486;51.956;5.888;2022-09-27T17:23:32;4.63;;;0.40;;
37641;SDS011;23486;51.956;5.888;2022-09-27T17:26:02;3.78;;;0.38;;
37641;SDS011;23486;51.956;5.888;2022-09-27T17:28:28;2.17;;;0.40;;
37641;SDS011;23486;51.956;5.888;2022-09-27T17:31:00;2.90;;;0.40;;